sensor_id;sensor_type;location;lat;lon;timestamp;pressure;altitude;pressure_sealevel;temperature;humidity
69035;BME280;56091;55.756;37.412;2022-10-04T00:02:45;97719.97;;;11.00;70.01
69035;BME280;56091;55.756;37.412;2022-10-04T00:07:51;97750.06;;;11.07;70.02
69035;BME280;56091;55.756;37.412;2022-10-04T00:12:58;97715.19;;;10.78;69.71
69035;BME280;56091;55.756;37.412;2022-10-04T00:23:27;97748.19;;;11.08;69.28
69035;BME280;56091;55.756;37.412;2022-10-04T00:33:48;97769.44;;;11.09;69.50
69035;BME280;56091;55.756;37.412;2022-10-04T00:49:35;97769.63;;;10.99;69.82
69035;BME280;56091;55.756;37.412;2022-10-04T00:54:49;97752.72;;;10.93;69.90
69035;BME280;56091;55.756;37.412;2022-10-04T00:59:53;97748.56;;;10.82;69.82
69035;BME280;56091;55.756;37.412;2022-10-04T01:05:10;97772.41;;;10.75;70.33
69035;BME280;56091;55.756;37.412;2022-10-04T01:10:30;97775.09;;;10.75;70.30
69035;BME280;56091;55.756;37.412;2022-10-04T01:15:39;97778.69;;;10.70;70.81
69035;BME280;56091;55.756;37.412;2022-10-04T01:31:34;97782.69;;;10.73;70.89
69035;BME280;56091;55.756;37.412;2022-10-04T01:36:36;97785.91;;;10.75;70.61
69035;BME280;56091;55.756;37.412;2022-10-04T01:41:47;97777.81;;;10.75;70.81
69035;BME280;56091;55.756;37.412;2022-10-04T01:46:51;97785.69;;;10.71;71.25
69035;BME280;56091;55.756;37.412;2022-10-04T01:52:14;97774.53;;;10.59;71.50
69035;BME280;56091;55.756;37.412;2022-10-04T01:57:19;97764.03;;;10.58;71.87
69035;BME280;56091;55.756;37.412;2022-10-04T02:07:41;97788.78;;;10.41;72.21
69035;BME280;56091;55.756;37.412;2022-10-04T02:12:47;97774.59;;;10.30;73.20
69035;BME280;56091;55.756;37.412;2022-10-04T02:17:49;97734.94;;;9.92;73.47
69035;BME280;56091;55.756;37.412;2022-10-04T02:22:58;97767.59;;;10.10;73.66
69035;BME280;56091;55.756;37.412;2022-10-04T02:28:08;97791.78;;;10.15;73.62
69035;BME280;56091;55.756;37.412;2022-10-04T02:33:10;97790.00;;;10.05;74.24
69035;BME280;56091;55.756;37.412;2022-10-04T02:44:01;97799.66;;;10.11;74.74
69035;BME280;56091;55.756;37.412;2022-10-04T02:49:19;97802.84;;;10.13;74.38
69035;BME280;56091;55.756;37.412;2022-10-04T02:59:38;97799.97;;;10.05;74.46
69035;BME280;56091;55.756;37.412;2022-10-04T03:04:39;97808.56;;;10.07;75.09
69035;BME280;56091;55.756;37.412;2022-10-04T03:09:40;97833.81;;;10.16;74.67
69035;BME280;56091;55.756;37.412;2022-10-04T03:14:42;97815.69;;;10.22;74.40
69035;BME280;56091;55.756;37.412;2022-10-04T03:19:46;97825.06;;;10.24;74.03
69035;BME280;56091;55.756;37.412;2022-10-04T03:24:52;97839.69;;;10.18;73.70
69035;BME280;56091;55.756;37.412;2022-10-04T03:29:55;97814.38;;;10.19;74.25
69035;BME280;56091;55.756;37.412;2022-10-04T03:35:03;97833.25;;;10.19;73.83
69035;BME280;56091;55.756;37.412;2022-10-04T03:40:08;97835.75;;;10.10;74.34
69035;BME280;56091;55.756;37.412;2022-10-04T03:45:13;97848.59;;;9.94;74.73
69035;BME280;56091;55.756;37.412;2022-10-04T03:50:32;97833.47;;;9.99;74.88
69035;BME280;56091;55.756;37.412;2022-10-04T03:55:39;97840.34;;;10.10;74.34
69035;BME280;56091;55.756;37.412;2022-10-04T04:06:14;97837.81;;;10.19;73.69
69035;BME280;56091;55.756;37.412;2022-10-04T04:11:26;97851.94;;;10.34;73.19
69035;BME280;56091;55.756;37.412;2022-10-04T04:16:30;97856.06;;;10.27;73.66
69035;BME280;56091;55.756;37.412;2022-10-04T04:21:31;97854.47;;;10.50;76.10
69035;BME280;56091;55.756;37.412;2022-10-04T04:26:37;97854.66;;;10.97;71.68
69035;BME280;56091;55.756;37.412;2022-10-04T04:31:45;97848.03;;;10.89;70.82
69035;BME280;56091;55.756;37.412;2022-10-04T04:36:56;97852.31;;;10.90;70.79
69035;BME280;56091;55.756;37.412;2022-10-04T04:42:27;97862.09;;;10.86;71.37
69035;BME280;56091;55.756;37.412;2022-10-04T04:47:38;97868.50;;;10.90;71.25
69035;BME280;56091;55.756;37.412;2022-10-04T04:52:52;97882.94;;;10.99;70.92
69035;BME280;56091;55.756;37.412;2022-10-04T04:57:56;97865.59;;;11.05;70.08
69035;BME280;56091;55.756;37.412;2022-10-04T05:02:59;97872.44;;;11.17;69.88
69035;BME280;56091;55.756;37.412;2022-10-04T05:13:21;97904.97;;;12.10;67.91
69035;BME280;56091;55.756;37.412;2022-10-04T05:18:31;97900.75;;;12.04;66.35
69035;BME280;56091;55.756;37.412;2022-10-04T05:23:34;97904.38;;;11.99;66.29
69035;BME280;56091;55.756;37.412;2022-10-04T05:28:35;97911.78;;;12.21;64.39
69035;BME280;56091;55.756;37.412;2022-10-04T05:33:37;97918.13;;;12.30;64.86
69035;BME280;56091;55.756;37.412;2022-10-04T05:39:00;97918.03;;;12.22;65.41
69035;BME280;56091;55.756;37.412;2022-10-04T05:44:26;97919.59;;;12.09;65.94
69035;BME280;56091;55.756;37.412;2022-10-04T05:49:40;97879.13;;;11.90;66.06
69035;BME280;56091;55.756;37.412;2022-10-04T05:54:43;97923.56;;;11.98;66.55
69035;BME280;56091;55.756;37.412;2022-10-04T06:05:24;97933.41;;;12.21;65.28
69035;BME280;56091;55.756;37.412;2022-10-04T06:10:43;97929.22;;;12.15;65.78
69035;BME280;56091;55.756;37.412;2022-10-04T06:21:19;97945.47;;;12.43;65.19
69035;BME280;56091;55.756;37.412;2022-10-04T06:26:26;97907.88;;;11.81;64.99
69035;BME280;56091;55.756;37.412;2022-10-04T07:09:22;97974.81;;;13.05;61.43
69035;BME280;56091;55.756;37.412;2022-10-04T07:14:28;97968.13;;;12.88;61.62
69035;BME280;56091;55.756;37.412;2022-10-04T07:19:36;97974.13;;;12.85;62.07
69035;BME280;56091;55.756;37.412;2022-10-04T07:29:58;97967.03;;;12.76;61.25
69035;BME280;56091;55.756;37.412;2022-10-04T07:40:24;97982.44;;;12.61;61.91
69035;BME280;56091;55.756;37.412;2022-10-04T07:45:30;97982.34;;;12.66;61.53
69035;BME280;56091;55.756;37.412;2022-10-04T07:50:49;97965.13;;;13.04;60.97
69035;BME280;56091;55.756;37.412;2022-10-04T07:56:40;97962.06;;;13.47;59.74
69035;BME280;56091;55.756;37.412;2022-10-04T08:01:44;97950.09;;;13.48;59.00
69035;BME280;56091;55.756;37.412;2022-10-04T08:06:58;97972.28;;;13.73;58.33
69035;BME280;56091;55.756;37.412;2022-10-04T08:49:57;97960.84;;;14.30;54.84
69035;BME280;56091;55.756;37.412;2022-10-04T08:55:34;97966.66;;;14.68;53.85
69035;BME280;56091;55.756;37.412;2022-10-04T09:06:13;97958.34;;;14.64;53.70
69035;BME280;56091;55.756;37.412;2022-10-04T09:32:37;97948.75;;;15.25;51.71
69035;BME280;56091;55.756;37.412;2022-10-04T09:54:23;97955.63;;;14.02;54.94
69035;BME280;56091;55.756;37.412;2022-10-04T10:10:37;97963.75;;;13.79;55.38
69035;BME280;56091;55.756;37.412;2022-10-04T10:27:01;98051.53;;;13.00;69.31
69035;BME280;56091;55.756;37.412;2022-10-04T10:38:28;98074.03;;;9.49;84.52
69035;BME280;56091;55.756;37.412;2022-10-04T11:53:46;98119.91;;;9.13;83.82
69035;BME280;56091;55.756;37.412;2022-10-04T12:09:38;98176.63;;;9.97;80.00
69035;BME280;56091;55.756;37.412;2022-10-04T12:25:20;98193.88;;;11.15;77.59
69035;BME280;56091;55.756;37.412;2022-10-04T13:23:53;98249.88;;;10.99;69.19
69035;BME280;56091;55.756;37.412;2022-10-04T14:07:28;98260.63;;;10.70;66.78
69035;BME280;56091;55.756;37.412;2022-10-04T14:28:36;98267.44;;;10.57;66.98
69035;BME280;56091;55.756;37.412;2022-10-04T14:34:17;98270.69;;;10.54;66.93
69035;BME280;56091;55.756;37.412;2022-10-04T14:50:23;98285.88;;;10.29;66.01
69035;BME280;56091;55.756;37.412;2022-10-04T15:01:01;98267.94;;;10.09;66.00
69035;BME280;56091;55.756;37.412;2022-10-04T15:11:35;98295.38;;;10.16;66.57
69035;BME280;56091;55.756;37.412;2022-10-04T15:22:05;98294.03;;;10.14;65.76
69035;BME280;56091;55.756;37.412;2022-10-04T15:32:36;98282.22;;;10.00;66.42
69035;BME280;56091;55.756;37.412;2022-10-04T15:43:11;98304.34;;;9.96;67.60
69035;BME280;56091;55.756;37.412;2022-10-04T15:53:53;98301.13;;;9.94;67.85
69035;BME280;56091;55.756;37.412;2022-10-04T16:15:33;98295.69;;;10.00;68.86
69035;BME280;56091;55.756;37.412;2022-10-04T16:36:57;98276.31;;;9.97;69.08
69035;BME280;56091;55.756;37.412;2022-10-04T16:42:03;98303.19;;;10.18;69.12
69035;BME280;56091;55.756;37.412;2022-10-04T16:47:28;98275.22;;;10.04;68.37
69035;BME280;56091;55.756;37.412;2022-10-04T16:57:40;98310.72;;;10.21;68.90
69035;BME280;56091;55.756;37.412;2022-10-04T17:03:10;98311.00;;;10.25;69.53
69035;BME280;56091;55.756;37.412;2022-10-04T17:08:18;98305.03;;;10.28;69.27
69035;BME280;56091;55.756;37.412;2022-10-04T17:13:34;98291.28;;;10.29;69.77
69035;BME280;56091;55.756;37.412;2022-10-04T17:18:49;98307.44;;;10.29;68.89
69035;BME280;56091;55.756;37.412;2022-10-04T17:50:40;98310.19;;;10.19;66.03
69035;BME280;56091;55.756;37.412;2022-10-04T17:56:06;98319.88;;;10.25;65.71
69035;BME280;56091;55.756;37.412;2022-10-04T18:01:15;98319.09;;;10.14;65.70
69035;BME280;56091;55.756;37.412;2022-10-04T18:17:40;98312.75;;;9.80;68.42
69035;BME280;56091;55.756;37.412;2022-10-04T18:22:49;98301.19;;;9.53;69.71
69035;BME280;56091;55.756;37.412;2022-10-04T18:33:13;98318.44;;;9.22;69.94
69035;BME280;56091;55.756;37.412;2022-10-04T18:38:27;98310.38;;;9.06;70.60
69035;BME280;56091;55.756;37.412;2022-10-04T18:43:40;98337.00;;;9.08;71.33
69035;BME280;56091;55.756;37.412;2022-10-04T19:10:44;98338.88;;;9.12;70.64
69035;BME280;56091;55.756;37.412;2022-10-04T19:16:13;98348.59;;;9.03;71.01
69035;BME280;56091;55.756;37.412;2022-10-04T19:21:29;98350.47;;;8.97;71.15
69035;BME280;56091;55.756;37.412;2022-10-04T19:27:02;98342.09;;;8.99;71.53
69035;BME280;56091;55.756;37.412;2022-10-04T19:32:22;98348.31;;;8.99;72.02
69035;BME280;56091;55.756;37.412;2022-10-04T19:42:59;98348.28;;;8.94;72.08
69035;BME280;56091;55.756;37.412;2022-10-04T19:48:20;98355.53;;;8.89;72.31
69035;BME280;56091;55.756;37.412;2022-10-04T19:53:41;98344.50;;;8.85;72.44
69035;BME280;56091;55.756;37.412;2022-10-04T19:58:49;98341.28;;;8.83;72.55
69035;BME280;56091;55.756;37.412;2022-10-04T20:03:53;98341.28;;;8.93;71.83
69035;BME280;56091;55.756;37.412;2022-10-04T20:09:48;98338.59;;;8.93;71.23
69035;BME280;56091;55.756;37.412;2022-10-04T20:14:51;98351.53;;;9.07;70.81
69035;BME280;56091;55.756;37.412;2022-10-04T20:30:48;98337.28;;;9.01;70.26
69035;BME280;56091;55.756;37.412;2022-10-04T20:36:01;98345.34;;;9.11;70.28
69035;BME280;56091;55.756;37.412;2022-10-04T20:41:03;98338.63;;;9.09;70.55
69035;BME280;56091;55.756;37.412;2022-10-04T20:46:20;98321.69;;;9.03;70.52
69035;BME280;56091;55.756;37.412;2022-10-04T20:51:29;98342.66;;;9.01;70.75
69035;BME280;56091;55.756;37.412;2022-10-04T20:56:32;98325.72;;;9.06;71.22
69035;BME280;56091;55.756;37.412;2022-10-04T21:01:35;98321.41;;;8.99;70.95
69035;BME280;56091;55.756;37.412;2022-10-04T21:06:55;98327.06;;;9.03;71.22
69035;BME280;56091;55.756;37.412;2022-10-04T21:11:57;98335.91;;;8.93;72.18
69035;BME280;56091;55.756;37.412;2022-10-04T21:17:00;98326.25;;;8.97;72.08
69035;BME280;56091;55.756;37.412;2022-10-04T21:22:06;98320.56;;;8.84;71.88
69035;BME280;56091;55.756;37.412;2022-10-04T21:27:11;98332.44;;;8.98;71.92
69035;BME280;56091;55.756;37.412;2022-10-04T21:32:26;98324.63;;;9.07;71.78
69035;BME280;56091;55.756;37.412;2022-10-04T21:37:27;98328.69;;;9.09;71.70
69035;BME280;56091;55.756;37.412;2022-10-04T21:42:28;98315.50;;;9.08;71.29
69035;BME280;56091;55.756;37.412;2022-10-04T21:47:29;98306.06;;;8.95;71.61
69035;BME280;56091;55.756;37.412;2022-10-04T21:52:29;98321.38;;;8.89;71.18
69035;BME280;56091;55.756;37.412;2022-10-04T21:57:30;98333.50;;;8.92;72.21
69035;BME280;56091;55.756;37.412;2022-10-04T22:02:31;98339.94;;;8.91;72.23
69035;BME280;56091;55.756;37.412;2022-10-04T22:07:31;98333.22;;;8.88;72.30
69035;BME280;56091;55.756;37.412;2022-10-04T22:12:32;98321.38;;;8.89;72.06
69035;BME280;56091;55.756;37.412;2022-10-04T22:17:33;98289.38;;;8.67;72.05
69035;BME280;56091;55.756;37.412;2022-10-04T22:22:34;98300.66;;;8.79;72.49
69035;BME280;56091;55.756;37.412;2022-10-04T22:27:37;98311.69;;;8.83;72.59
69035;BME280;56091;55.756;37.412;2022-10-04T22:32:43;98310.34;;;8.86;72.54
69035;BME280;56091;55.756;37.412;2022-10-04T22:37:46;98334.03;;;8.89;72.46
69035;BME280;56091;55.756;37.412;2022-10-04T22:42:53;98330.25;;;8.85;72.52
69035;BME280;56091;55.756;37.412;2022-10-04T22:48:10;98322.19;;;8.85;72.85
69035;BME280;56091;55.756;37.412;2022-10-04T22:53:19;98325.69;;;8.85;72.71
69035;BME280;56091;55.756;37.412;2022-10-04T22:58:20;98325.97;;;8.89;72.67
69035;BME280;56091;55.756;37.412;2022-10-04T23:03:31;98302.28;;;8.65;72.72
69035;BME280;56091;55.756;37.412;2022-10-04T23:08:33;98331.88;;;8.81;72.37
69035;BME280;56091;55.756;37.412;2022-10-04T23:13:37;98326.47;;;8.75;73.12
69035;BME280;56091;55.756;37.412;2022-10-04T23:18:38;98327.81;;;8.78;72.80
69035;BME280;56091;55.756;37.412;2022-10-04T23:23:39;98322.16;;;8.74;72.85
69035;BME280;56091;55.756;37.412;2022-10-04T23:28:39;98322.72;;;8.82;73.25
69035;BME280;56091;55.756;37.412;2022-10-04T23:33:40;98321.41;;;8.84;72.93
69035;BME280;56091;55.756;37.412;2022-10-04T23:38:48;98306.84;;;8.75;73.15
69035;BME280;56091;55.756;37.412;2022-10-04T23:43:49;98318.72;;;8.84;73.55
69035;BME280;56091;55.756;37.412;2022-10-04T23:48:49;98315.75;;;8.81;72.75
69035;BME280;56091;55.756;37.412;2022-10-04T23:53:50;98302.28;;;8.75;73.23
69035;BME280;56091;55.756;37.412;2022-10-04T23:58:54;98310.34;;;8.75;73.11
